sensor_id;sensor_type;location;lat;lon;timestamp;temperature;humidity
23403;DHT22;11874;48.228;11.684;2023-01-19T00:01:29;2.70;99.90
23403;DHT22;11874;48.228;11.684;2023-01-19T00:03:56;2.70;99.90
23403;DHT22;11874;48.228;11.684;2023-01-19T00:06:24;2.70;99.90
23403;DHT22;11874;48.228;11.684;2023-01-19T00:08:54;2.70;99.90
23403;DHT22;11874;48.228;11.684;2023-01-19T00:11:22;2.70;99.90
23403;DHT22;11874;48.228;11.684;2023-01-19T00:13:49;2.70;99.90
23403;DHT22;11874;48.228;11.684;2023-01-19T00:16:20;2.70;99.90
23403;DHT22;11874;48.228;11.684;2023-01-19T00:18:50;2.60;99.90
23403;DHT22;11874;48.228;11.684;2023-01-19T00:21:18;2.70;99.90
23403;DHT22;11874;48.228;11.684;2023-01-19T00:23:47;2.70;99.90
23403;DHT22;11874;48.228;11.684;2023-01-19T00:26:19;2.60;99.90
23403;DHT22;11874;48.228;11.684;2023-01-19T00:28:48;2.70;99.90
23403;DHT22;11874;48.228;11.684;2023-01-19T00:31:16;2.60;99.90
23403;DHT22;11874;48.228;11.684;2023-01-19T00:33:47;2.70;99.90
23403;DHT22;11874;48.228;11.684;2023-01-19T00:36:17;2.70;99.90
23403;DHT22;11874;48.228;11.684;2023-01-19T00:38:45;2.60;99.90
23403;DHT22;11874;48.228;11.684;2023-01-19T00:41:13;2.70;99.90
23403;DHT22;11874;48.228;11.684;2023-01-19T00:43:42;2.70;99.90
23403;DHT22;11874;48.228;11.684;2023-01-19T00:46:09;2.70;99.90
23403;DHT22;11874;48.228;11.684;2023-01-19T00:48:37;2.60;99.90
23403;DHT22;11874;48.228;11.684;2023-01-19T00:51:05;2.70;99.90
23403;DHT22;11874;48.228;11.684;2023-01-19T00:53:33;2.70;99.90
23403;DHT22;11874;48.228;11.684;2023-01-19T00:56:00;2.60;99.90
23403;DHT22;11874;48.228;11.684;2023-01-19T00:58:28;2.60;99.90
23403;DHT22;11874;48.228;11.684;2023-01-19T01:00:57;2.60;99.90
23403;DHT22;11874;48.228;11.684;2023-01-19T01:03:29;2.60;99.90
23403;DHT22;11874;48.228;11.684;2023-01-19T01:05:57;2.60;99.90
23403;DHT22;11874;48.228;11.684;2023-01-19T01:08:25;2.60;99.90
23403;DHT22;11874;48.228;11.684;2023-01-19T01:10:53;2.60;99.90
23403;DHT22;11874;48.228;11.684;2023-01-19T01:13:21;2.60;99.90
23403;DHT22;11874;48.228;11.684;2023-01-19T01:15:54;2.60;99.90
23403;DHT22;11874;48.228;11.684;2023-01-19T01:18:24;2.60;99.90
23403;DHT22;11874;48.228;11.684;2023-01-19T01:20:51;2.60;99.90
23403;DHT22;11874;48.228;11.684;2023-01-19T01:23:21;2.60;99.90
23403;DHT22;11874;48.228;11.684;2023-01-19T01:25:49;2.60;99.90
23403;DHT22;11874;48.228;11.684;2023-01-19T01:28:17;2.60;99.90
23403;DHT22;11874;48.228;11.684;2023-01-19T01:30:45;2.60;99.90
23403;DHT22;11874;48.228;11.684;2023-01-19T01:33:13;2.60;99.90
23403;DHT22;11874;48.228;11.684;2023-01-19T01:36:03;2.60;99.90
23403;DHT22;11874;48.228;11.684;2023-01-19T01:38:31;2.60;99.90
23403;DHT22;11874;48.228;11.684;2023-01-19T01:40:59;2.60;99.90
23403;DHT22;11874;48.228;11.684;2023-01-19T01:43:41;2.60;99.90
23403;DHT22;11874;48.228;11.684;2023-01-19T01:46:11;2.60;99.90
23403;DHT22;11874;48.228;11.684;2023-01-19T01:48:43;2.60;99.90
23403;DHT22;11874;48.228;11.684;2023-01-19T01:51:17;2.60;99.90
23403;DHT22;11874;48.228;11.684;2023-01-19T01:54:01;2.60;99.90
23403;DHT22;11874;48.228;11.684;2023-01-19T01:56:34;2.60;99.90
23403;DHT22;11874;48.228;11.684;2023-01-19T01:59:05;2.60;99.90
23403;DHT22;11874;48.228;11.684;2023-01-19T02:01:34;2.60;99.90
23403;DHT22;11874;48.228;11.684;2023-01-19T02:04:31;2.60;99.90
23403;DHT22;11874;48.228;11.684;2023-01-19T02:07:00;2.60;99.90
23403;DHT22;11874;48.228;11.684;2023-01-19T02:09:46;2.50;99.90
23403;DHT22;11874;48.228;11.684;2023-01-19T02:12:31;2.60;99.90
23403;DHT22;11874;48.228;11.684;2023-01-19T02:15:18;2.60;99.90
23403;DHT22;11874;48.228;11.684;2023-01-19T02:17:46;2.60;99.90
23403;DHT22;11874;48.228;11.684;2023-01-19T02:20:16;2.60;99.90
23403;DHT22;11874;48.228;11.684;2023-01-19T02:22:48;2.60;99.90
23403;DHT22;11874;48.228;11.684;2023-01-19T02:25:18;2.60;99.90
23403;DHT22;11874;48.228;11.684;2023-01-19T02:27:47;2.60;99.90
23403;DHT22;11874;48.228;11.684;2023-01-19T02:30:16;2.60;99.90
23403;DHT22;11874;48.228;11.684;2023-01-19T02:32:44;2.60;99.90
23403;DHT22;11874;48.228;11.684;2023-01-19T02:35:12;2.60;99.90
23403;DHT22;11874;48.228;11.684;2023-01-19T02:37:41;2.60;99.90
23403;DHT22;11874;48.228;11.684;2023-01-19T02:40:12;2.50;99.90
23403;DHT22;11874;48.228;11.684;2023-01-19T02:42:44;2.60;99.90
23403;DHT22;11874;48.228;11.684;2023-01-19T02:45:16;2.50;99.90
23403;DHT22;11874;48.228;11.684;2023-01-19T02:47:46;2.50;99.90
23403;DHT22;11874;48.228;11.684;2023-01-19T02:50:37;2.40;99.90
23403;DHT22;11874;48.228;11.684;2023-01-19T02:53:22;2.40;99.90
23403;DHT22;11874;48.228;11.684;2023-01-19T02:55:57;2.30;99.90
23403;DHT22;11874;48.228;11.684;2023-01-19T02:58:32;2.40;99.90
23403;DHT22;11874;48.228;11.684;2023-01-19T03:01:10;2.40;99.90
23403;DHT22;11874;48.228;11.684;2023-01-19T03:03:49;2.40;99.90
23403;DHT22;11874;48.228;11.684;2023-01-19T03:06:26;2.40;99.90
23403;DHT22;11874;48.228;11.684;2023-01-19T03:09:00;2.30;99.90
23403;DHT22;11874;48.228;11.684;2023-01-19T03:11:41;2.30;99.90
23403;DHT22;11874;48.228;11.684;2023-01-19T03:14:18;2.40;99.90
23403;DHT22;11874;48.228;11.684;2023-01-19T03:16:50;2.40;99.90
23403;DHT22;11874;48.228;11.684;2023-01-19T03:19:23;2.40;99.90
23403;DHT22;11874;48.228;11.684;2023-01-19T03:21:56;2.40;99.90
23403;DHT22;11874;48.228;11.684;2023-01-19T03:24:28;2.40;99.90
23403;DHT22;11874;48.228;11.684;2023-01-19T03:26:59;2.40;99.90
23403;DHT22;11874;48.228;11.684;2023-01-19T03:29:31;2.40;99.90
23403;DHT22;11874;48.228;11.684;2023-01-19T03:32:06;2.30;99.90
23403;DHT22;11874;48.228;11.684;2023-01-19T03:34:35;2.30;99.90
23403;DHT22;11874;48.228;11.684;2023-01-19T03:37:06;2.40;99.90
23403;DHT22;11874;48.228;11.684;2023-01-19T03:39:36;2.40;99.90
23403;DHT22;11874;48.228;11.684;2023-01-19T03:42:06;2.30;99.90
23403;DHT22;11874;48.228;11.684;2023-01-19T03:44:38;2.40;99.90
23403;DHT22;11874;48.228;11.684;2023-01-19T03:47:09;3.10;99.90
23403;DHT22;11874;48.228;11.684;2023-01-19T03:49:38;2.30;99.90
23403;DHT22;11874;48.228;11.684;2023-01-19T03:52:08;2.30;99.90
23403;DHT22;11874;48.228;11.684;2023-01-19T03:54:36;2.30;99.90
23403;DHT22;11874;48.228;11.684;2023-01-19T03:57:04;2.30;99.90
23403;DHT22;11874;48.228;11.684;2023-01-19T03:59:32;2.30;99.90
23403;DHT22;11874;48.228;11.684;2023-01-19T04:02:01;2.30;99.90
23403;DHT22;11874;48.228;11.684;2023-01-19T04:04:29;2.20;99.90
23403;DHT22;11874;48.228;11.684;2023-01-19T04:06:57;2.20;99.90
23403;DHT22;11874;48.228;11.684;2023-01-19T04:09:25;2.20;99.90
23403;DHT22;11874;48.228;11.684;2023-01-19T04:11:53;2.20;99.90
23403;DHT22;11874;48.228;11.684;2023-01-19T04:14:22;2.20;99.90
23403;DHT22;11874;48.228;11.684;2023-01-19T04:16:50;2.20;99.90
23403;DHT22;11874;48.228;11.684;2023-01-19T04:19:19;2.20;99.90
23403;DHT22;11874;48.228;11.684;2023-01-19T04:21:47;2.20;99.90
23403;DHT22;11874;48.228;11.684;2023-01-19T04:24:16;2.20;99.90
23403;DHT22;11874;48.228;11.684;2023-01-19T04:26:44;2.20;99.90
23403;DHT22;11874;48.228;11.684;2023-01-19T04:29:12;2.10;99.90
23403;DHT22;11874;48.228;11.684;2023-01-19T04:31:40;2.10;99.90
23403;DHT22;11874;48.228;11.684;2023-01-19T04:34:08;2.10;99.90
23403;DHT22;11874;48.228;11.684;2023-01-19T04:36:37;2.10;99.90
23403;DHT22;11874;48.228;11.684;2023-01-19T04:39:05;2.10;99.90
23403;DHT22;11874;48.228;11.684;2023-01-19T04:41:34;2.10;99.90
23403;DHT22;11874;48.228;11.684;2023-01-19T04:44:02;2.10;99.90
23403;DHT22;11874;48.228;11.684;2023-01-19T04:46:31;2.00;99.90
23403;DHT22;11874;48.228;11.684;2023-01-19T04:48:59;1.90;99.90
23403;DHT22;11874;48.228;11.684;2023-01-19T04:51:27;2.00;99.90
23403;DHT22;11874;48.228;11.684;2023-01-19T04:53:56;2.00;99.90
23403;DHT22;11874;48.228;11.684;2023-01-19T04:56:24;2.00;99.90
23403;DHT22;11874;48.228;11.684;2023-01-19T04:58:52;2.00;99.90
23403;DHT22;11874;48.228;11.684;2023-01-19T05:01:20;2.00;99.90
23403;DHT22;11874;48.228;11.684;2023-01-19T05:03:48;1.90;99.90
23403;DHT22;11874;48.228;11.684;2023-01-19T05:06:16;2.00;99.90
23403;DHT22;11874;48.228;11.684;2023-01-19T05:08:44;1.90;99.90
23403;DHT22;11874;48.228;11.684;2023-01-19T05:11:13;1.90;99.90
23403;DHT22;11874;48.228;11.684;2023-01-19T05:13:41;1.90;99.90
23403;DHT22;11874;48.228;11.684;2023-01-19T05:16:09;1.90;99.90
23403;DHT22;11874;48.228;11.684;2023-01-19T05:18:37;1.90;99.90
23403;DHT22;11874;48.228;11.684;2023-01-19T05:21:06;1.90;99.90
23403;DHT22;11874;48.228;11.684;2023-01-19T05:23:34;1.90;99.90
23403;DHT22;11874;48.228;11.684;2023-01-19T05:26:02;1.90;99.90
23403;DHT22;11874;48.228;11.684;2023-01-19T05:28:32;1.90;99.90
23403;DHT22;11874;48.228;11.684;2023-01-19T05:30:59;1.90;99.90
23403;DHT22;11874;48.228;11.684;2023-01-19T05:33:28;1.90;99.90
23403;DHT22;11874;48.228;11.684;2023-01-19T05:35:56;1.90;99.90
23403;DHT22;11874;48.228;11.684;2023-01-19T05:38:23;1.90;99.90
23403;DHT22;11874;48.228;11.684;2023-01-19T05:41:00;1.90;99.90
23403;DHT22;11874;48.228;11.684;2023-01-19T05:43:28;1.90;99.90
23403;DHT22;11874;48.228;11.684;2023-01-19T05:45:57;1.90;99.90
23403;DHT22;11874;48.228;11.684;2023-01-19T05:48:25;1.80;99.90
23403;DHT22;11874;48.228;11.684;2023-01-19T05:50:56;1.80;99.90
23403;DHT22;11874;48.228;11.684;2023-01-19T05:53:25;1.80;99.90
23403;DHT22;11874;48.228;11.684;2023-01-19T05:55:54;1.80;99.90
23403;DHT22;11874;48.228;11.684;2023-01-19T05:58:25;1.80;99.90
23403;DHT22;11874;48.228;11.684;2023-01-19T06:00:53;1.80;99.90
23403;DHT22;11874;48.228;11.684;2023-01-19T06:03:22;1.90;99.90
23403;DHT22;11874;48.228;11.684;2023-01-19T06:05:50;1.90;99.90
23403;DHT22;11874;48.228;11.684;2023-01-19T06:08:18;1.80;99.90
23403;DHT22;11874;48.228;11.684;2023-01-19T06:10:46;1.80;99.90
23403;DHT22;11874;48.228;11.684;2023-01-19T06:13:13;1.80;99.90
23403;DHT22;11874;48.228;11.684;2023-01-19T06:15:41;1.80;99.90
23403;DHT22;11874;48.228;11.684;2023-01-19T06:18:10;1.80;99.90
23403;DHT22;11874;48.228;11.684;2023-01-19T06:20:39;3.20;99.90
23403;DHT22;11874;48.228;11.684;2023-01-19T06:23:07;1.80;99.90
23403;DHT22;11874;48.228;11.684;2023-01-19T06:25:36;1.80;99.90
23403;DHT22;11874;48.228;11.684;2023-01-19T06:28:04;1.80;99.90
23403;DHT22;11874;48.228;11.684;2023-01-19T06:30:32;1.80;99.90
23403;DHT22;11874;48.228;11.684;2023-01-19T06:32:59;1.80;99.90
23403;DHT22;11874;48.228;11.684;2023-01-19T06:35:28;1.80;99.90
23403;DHT22;11874;48.228;11.684;2023-01-19T06:37:57;1.90;99.90
23403;DHT22;11874;48.228;11.684;2023-01-19T06:40:25;1.90;99.90
23403;DHT22;11874;48.228;11.684;2023-01-19T06:42:53;1.90;99.90
23403;DHT22;11874;48.228;11.684;2023-01-19T06:45:21;1.80;99.90
23403;DHT22;11874;48.228;11.684;2023-01-19T06:47:49;1.90;99.90
23403;DHT22;11874;48.228;11.684;2023-01-19T06:50:16;1.90;99.90
23403;DHT22;11874;48.228;11.684;2023-01-19T06:52:44;1.80;99.90
23403;DHT22;11874;48.228;11.684;2023-01-19T06:55:14;1.80;99.90
23403;DHT22;11874;48.228;11.684;2023-01-19T06:57:42;1.80;99.90
23403;DHT22;11874;48.228;11.684;2023-01-19T07:00:11;1.80;99.90
23403;DHT22;11874;48.228;11.684;2023-01-19T07:02:41;1.80;99.90
23403;DHT22;11874;48.228;11.684;2023-01-19T07:05:09;1.80;99.90
23403;DHT22;11874;48.228;11.684;2023-01-19T07:07:40;1.80;99.90
23403;DHT22;11874;48.228;11.684;2023-01-19T07:10:10;1.80;99.90
23403;DHT22;11874;48.228;11.684;2023-01-19T07:12:40;1.70;99.90
23403;DHT22;11874;48.228;11.684;2023-01-19T07:15:09;1.70;99.90
23403;DHT22;11874;48.228;11.684;2023-01-19T07:17:38;1.70;99.90
23403;DHT22;11874;48.228;11.684;2023-01-19T07:20:08;1.70;99.90
23403;DHT22;11874;48.228;11.684;2023-01-19T07:22:38;1.70;99.90
23403;DHT22;11874;48.228;11.684;2023-01-19T07:25:07;1.70;99.90
23403;DHT22;11874;48.228;11.684;2023-01-19T07:27:35;1.70;99.90
23403;DHT22;11874;48.228;11.684;2023-01-19T07:30:05;1.70;99.90
23403;DHT22;11874;48.228;11.684;2023-01-19T07:32:33;1.70;99.90
23403;DHT22;11874;48.228;11.684;2023-01-19T07:35:01;1.80;99.90
23403;DHT22;11874;48.228;11.684;2023-01-19T07:37:29;1.70;99.90
23403;DHT22;11874;48.228;11.684;2023-01-19T07:39:57;1.80;99.90
23403;DHT22;11874;48.228;11.684;2023-01-19T07:42:25;1.80;99.90
23403;DHT22;11874;48.228;11.684;2023-01-19T07:44:53;1.80;99.90
23403;DHT22;11874;48.228;11.684;2023-01-19T07:47:22;1.70;99.90
23403;DHT22;11874;48.228;11.684;2023-01-19T07:49:50;2.00;99.90
23403;DHT22;11874;48.228;11.684;2023-01-19T07:52:18;1.70;99.90
23403;DHT22;11874;48.228;11.684;2023-01-19T07:54:46;1.70;99.90
23403;DHT22;11874;48.228;11.684;2023-01-19T07:57:16;1.70;99.90
23403;DHT22;11874;48.228;11.684;2023-01-19T07:59:44;1.60;99.90
23403;DHT22;11874;48.228;11.684;2023-01-19T08:02:12;1.70;99.90
23403;DHT22;11874;48.228;11.684;2023-01-19T08:04:46;1.70;99.90
23403;DHT22;11874;48.228;11.684;2023-01-19T08:07:14;1.70;99.90
23403;DHT22;11874;48.228;11.684;2023-01-19T08:09:42;1.70;99.90
23403;DHT22;11874;48.228;11.684;2023-01-19T08:12:10;1.70;99.90
23403;DHT22;11874;48.228;11.684;2023-01-19T08:14:38;1.70;99.90
23403;DHT22;11874;48.228;11.684;2023-01-19T08:17:06;1.70;99.90
23403;DHT22;11874;48.228;11.684;2023-01-19T08:19:33;1.70;99.90
23403;DHT22;11874;48.228;11.684;2023-01-19T08:22:03;1.70;99.90
23403;DHT22;11874;48.228;11.684;2023-01-19T08:24:31;1.70;99.90
23403;DHT22;11874;48.228;11.684;2023-01-19T08:27:00;1.70;99.90
23403;DHT22;11874;48.228;11.684;2023-01-19T08:29:29;1.80;99.90
23403;DHT22;11874;48.228;11.684;2023-01-19T08:31:57;1.80;99.90
23403;DHT22;11874;48.228;11.684;2023-01-19T08:34:27;1.80;99.90
23403;DHT22;11874;48.228;11.684;2023-01-19T08:36:56;1.80;99.90
23403;DHT22;11874;48.228;11.684;2023-01-19T08:39:26;1.80;99.90
23403;DHT22;11874;48.228;11.684;2023-01-19T08:41:54;1.90;99.90
23403;DHT22;11874;48.228;11.684;2023-01-19T08:44:22;1.90;99.90
23403;DHT22;11874;48.228;11.684;2023-01-19T08:46:50;1.90;99.90
23403;DHT22;11874;48.228;11.684;2023-01-19T08:49:17;1.90;99.90
23403;DHT22;11874;48.228;11.684;2023-01-19T08:51:46;1.90;99.90
23403;DHT22;11874;48.228;11.684;2023-01-19T08:54:14;2.00;99.90
23403;DHT22;11874;48.228;11.684;2023-01-19T08:56:45;1.90;99.90
23403;DHT22;11874;48.228;11.684;2023-01-19T08:59:13;1.90;99.90
23403;DHT22;11874;48.228;11.684;2023-01-19T09:01:42;1.90;99.90
23403;DHT22;11874;48.228;11.684;2023-01-19T09:04:10;2.00;99.90
23403;DHT22;11874;48.228;11.684;2023-01-19T09:06:38;2.00;99.90
23403;DHT22;11874;48.228;11.684;2023-01-19T09:09:06;2.00;99.90
23403;DHT22;11874;48.228;11.684;2023-01-19T09:11:33;2.00;99.90
23403;DHT22;11874;48.228;11.684;2023-01-19T09:14:03;2.00;99.90
23403;DHT22;11874;48.228;11.684;2023-01-19T09:16:31;2.10;99.90
23403;DHT22;11874;48.228;11.684;2023-01-19T09:18:59;2.00;99.90
23403;DHT22;11874;48.228;11.684;2023-01-19T09:21:27;2.10;99.90
23403;DHT22;11874;48.228;11.684;2023-01-19T09:23:55;2.10;99.90
23403;DHT22;11874;48.228;11.684;2023-01-19T09:26:23;2.10;99.90
23403;DHT22;11874;48.228;11.684;2023-01-19T09:28:51;2.20;99.90
23403;DHT22;11874;48.228;11.684;2023-01-19T09:31:20;2.20;99.90
23403;DHT22;11874;48.228;11.684;2023-01-19T09:33:49;2.20;99.90
23403;DHT22;11874;48.228;11.684;2023-01-19T09:36:17;2.20;99.90
23403;DHT22;11874;48.228;11.684;2023-01-19T09:38:44;2.20;99.90
23403;DHT22;11874;48.228;11.684;2023-01-19T09:41:18;2.20;99.90
23403;DHT22;11874;48.228;11.684;2023-01-19T09:43:50;2.10;99.90
23403;DHT22;11874;48.228;11.684;2023-01-19T09:46:23;2.10;99.90
23403;DHT22;11874;48.228;11.684;2023-01-19T09:48:55;2.10;99.90
23403;DHT22;11874;48.228;11.684;2023-01-19T09:51:25;2.10;99.90
23403;DHT22;11874;48.228;11.684;2023-01-19T09:54:03;2.10;99.90
23403;DHT22;11874;48.228;11.684;2023-01-19T09:56:32;2.10;99.90
23403;DHT22;11874;48.228;11.684;2023-01-19T09:59:02;2.10;99.90
23403;DHT22;11874;48.228;11.684;2023-01-19T10:01:38;2.40;99.90
23403;DHT22;11874;48.228;11.684;2023-01-19T10:07:20;2.20;99.90
23403;DHT22;11874;48.228;11.684;2023-01-19T10:10:12;2.20;99.90
23403;DHT22;11874;48.228;11.684;2023-01-19T10:12:51;2.10;99.90
23403;DHT22;11874;48.228;11.684;2023-01-19T10:15:30;2.20;99.90
23403;DHT22;11874;48.228;11.684;2023-01-19T10:18:11;2.20;99.90
23403;DHT22;11874;48.228;11.684;2023-01-19T10:20:42;2.20;99.90
23403;DHT22;11874;48.228;11.684;2023-01-19T10:23:28;2.30;99.90
23403;DHT22;11874;48.228;11.684;2023-01-19T10:26:02;2.30;99.90
23403;DHT22;11874;48.228;11.684;2023-01-19T10:28:35;2.30;99.90
23403;DHT22;11874;48.228;11.684;2023-01-19T10:31:03;2.30;99.90
23403;DHT22;11874;48.228;11.684;2023-01-19T10:33:34;2.30;99.90
23403;DHT22;11874;48.228;11.684;2023-01-19T10:36:04;2.40;99.90
23403;DHT22;11874;48.228;11.684;2023-01-19T10:38:33;2.30;99.90
23403;DHT22;11874;48.228;11.684;2023-01-19T10:41:04;2.30;99.90
23403;DHT22;11874;48.228;11.684;2023-01-19T10:43:39;2.40;99.90
23403;DHT22;11874;48.228;11.684;2023-01-19T10:46:20;2.50;99.90
23403;DHT22;11874;48.228;11.684;2023-01-19T10:48:51;2.60;99.90
23403;DHT22;11874;48.228;11.684;2023-01-19T10:51:20;2.60;99.90
23403;DHT22;11874;48.228;11.684;2023-01-19T10:53:57;2.70;99.90
23403;DHT22;11874;48.228;11.684;2023-01-19T10:56:28;2.70;99.90
23403;DHT22;11874;48.228;11.684;2023-01-19T10:58:59;2.70;99.90
23403;DHT22;11874;48.228;11.684;2023-01-19T11:01:29;2.70;99.90
23403;DHT22;11874;48.228;11.684;2023-01-19T11:04:19;2.70;99.90
23403;DHT22;11874;48.228;11.684;2023-01-19T11:06:47;2.70;99.90
23403;DHT22;11874;48.228;11.684;2023-01-19T11:09:17;2.70;99.90
23403;DHT22;11874;48.228;11.684;2023-01-19T11:11:47;2.90;99.90
23403;DHT22;11874;48.228;11.684;2023-01-19T11:14:18;2.80;99.90
23403;DHT22;11874;48.228;11.684;2023-01-19T11:16:49;2.80;99.90
23403;DHT22;11874;48.228;11.684;2023-01-19T11:19:23;2.90;99.90
23403;DHT22;11874;48.228;11.684;2023-01-19T11:21:54;2.90;99.90
23403;DHT22;11874;48.228;11.684;2023-01-19T11:24:36;3.00;99.90
23403;DHT22;11874;48.228;11.684;2023-01-19T11:27:04;3.10;99.90
23403;DHT22;11874;48.228;11.684;2023-01-19T11:29:32;3.10;99.90
23403;DHT22;11874;48.228;11.684;2023-01-19T11:32:09;3.10;99.90
23403;DHT22;11874;48.228;11.684;2023-01-19T11:34:39;3.10;99.90
23403;DHT22;11874;48.228;11.684;2023-01-19T11:37:26;3.10;99.90
23403;DHT22;11874;48.228;11.684;2023-01-19T11:39:56;3.20;99.90
23403;DHT22;11874;48.228;11.684;2023-01-19T11:42:25;3.10;99.90
23403;DHT22;11874;48.228;11.684;2023-01-19T11:45:00;3.10;99.90
23403;DHT22;11874;48.228;11.684;2023-01-19T11:47:34;3.20;99.90
23403;DHT22;11874;48.228;11.684;2023-01-19T11:50:12;3.20;99.90
23403;DHT22;11874;48.228;11.684;2023-01-19T11:52:43;3.20;99.90
23403;DHT22;11874;48.228;11.684;2023-01-19T11:55:17;3.20;99.90
23403;DHT22;11874;48.228;11.684;2023-01-19T11:57:48;3.20;99.90
23403;DHT22;11874;48.228;11.684;2023-01-19T12:00:25;3.20;99.90
23403;DHT22;11874;48.228;11.684;2023-01-19T12:02:58;3.20;99.90
23403;DHT22;11874;48.228;11.684;2023-01-19T12:05:31;3.10;99.90
23403;DHT22;11874;48.228;11.684;2023-01-19T12:08:03;3.10;99.90
23403;DHT22;11874;48.228;11.684;2023-01-19T12:10:34;3.10;99.90
23403;DHT22;11874;48.228;11.684;2023-01-19T12:13:04;3.20;99.90
23403;DHT22;11874;48.228;11.684;2023-01-19T12:15:36;3.20;99.90
23403;DHT22;11874;48.228;11.684;2023-01-19T12:18:10;3.20;99.90
23403;DHT22;11874;48.228;11.684;2023-01-19T12:20:44;3.20;99.70
23403;DHT22;11874;48.228;11.684;2023-01-19T12:23:21;3.20;99.40
23403;DHT22;11874;48.228;11.684;2023-01-19T12:26:00;3.20;99.30
23403;DHT22;11874;48.228;11.684;2023-01-19T12:28:33;3.20;99.40
23403;DHT22;11874;48.228;11.684;2023-01-19T12:31:04;3.20;99.60
23403;DHT22;11874;48.228;11.684;2023-01-19T12:33:33;3.30;99.30
23403;DHT22;11874;48.228;11.684;2023-01-19T12:36:05;3.30;99.10
23403;DHT22;11874;48.228;11.684;2023-01-19T12:38:45;3.30;99.10
23403;DHT22;11874;48.228;11.684;2023-01-19T12:41:28;3.30;99.10
23403;DHT22;11874;48.228;11.684;2023-01-19T12:46:46;3.30;98.90
23403;DHT22;11874;48.228;11.684;2023-01-19T12:49:22;3.30;98.70
23403;DHT22;11874;48.228;11.684;2023-01-19T12:51:54;3.30;98.80
23403;DHT22;11874;48.228;11.684;2023-01-19T12:54:40;3.30;98.90
23403;DHT22;11874;48.228;11.684;2023-01-19T12:57:18;3.40;99.00
23403;DHT22;11874;48.228;11.684;2023-01-19T12:59:55;3.40;98.90
23403;DHT22;11874;48.228;11.684;2023-01-19T13:02:50;3.50;99.10
23403;DHT22;11874;48.228;11.684;2023-01-19T13:05:50;3.50;98.80
23403;DHT22;11874;48.228;11.684;2023-01-19T13:08:27;3.50;98.80
23403;DHT22;11874;48.228;11.684;2023-01-19T13:11:18;3.50;98.80
23403;DHT22;11874;48.228;11.684;2023-01-19T13:17:01;3.30;98.70
23403;DHT22;11874;48.228;11.684;2023-01-19T13:19:46;3.20;98.70
23403;DHT22;11874;48.228;11.684;2023-01-19T13:22:50;3.20;98.80
23403;DHT22;11874;48.228;11.684;2023-01-19T13:25:29;3.20;98.90
23403;DHT22;11874;48.228;11.684;2023-01-19T13:27:57;3.20;98.70
23403;DHT22;11874;48.228;11.684;2023-01-19T13:30:27;3.10;98.70
23403;DHT22;11874;48.228;11.684;2023-01-19T13:33:04;3.10;98.80
23403;DHT22;11874;48.228;11.684;2023-01-19T13:35:33;3.10;98.90
23403;DHT22;11874;48.228;11.684;2023-01-19T13:38:01;3.10;98.90
23403;DHT22;11874;48.228;11.684;2023-01-19T13:40:35;3.00;98.90
23403;DHT22;11874;48.228;11.684;2023-01-19T13:43:11;3.00;99.20
23403;DHT22;11874;48.228;11.684;2023-01-19T13:45:46;2.50;98.80
23403;DHT22;11874;48.228;11.684;2023-01-19T13:48:18;3.00;99.10
23403;DHT22;11874;48.228;11.684;2023-01-19T13:50:58;3.00;99.20
23403;DHT22;11874;48.228;11.684;2023-01-19T13:53:27;3.00;99.00
23403;DHT22;11874;48.228;11.684;2023-01-19T13:56:17;3.10;98.90
23403;DHT22;11874;48.228;11.684;2023-01-19T13:59:05;3.10;98.90
23403;DHT22;11874;48.228;11.684;2023-01-19T14:01:37;3.10;98.80
23403;DHT22;11874;48.228;11.684;2023-01-19T14:04:23;3.00;98.70
23403;DHT22;11874;48.228;11.684;2023-01-19T14:06:51;3.00;98.60
23403;DHT22;11874;48.228;11.684;2023-01-19T14:09:21;3.00;98.60
23403;DHT22;11874;48.228;11.684;2023-01-19T14:12:07;3.00;98.50
23403;DHT22;11874;48.228;11.684;2023-01-19T14:14:36;3.00;98.70
23403;DHT22;11874;48.228;11.684;2023-01-19T14:17:20;3.00;98.60
23403;DHT22;11874;48.228;11.684;2023-01-19T14:19:53;3.00;98.60
23403;DHT22;11874;48.228;11.684;2023-01-19T14:22:36;3.00;98.10
23403;DHT22;11874;48.228;11.684;2023-01-19T14:25:20;2.90;98.10
23403;DHT22;11874;48.228;11.684;2023-01-19T14:27:49;3.00;98.20
23403;DHT22;11874;48.228;11.684;2023-01-19T14:30:20;3.20;98.30
23403;DHT22;11874;48.228;11.684;2023-01-19T14:32:50;3.00;98.00
23403;DHT22;11874;48.228;11.684;2023-01-19T14:35:23;3.00;98.10
23403;DHT22;11874;48.228;11.684;2023-01-19T14:37:51;3.00;98.00
23403;DHT22;11874;48.228;11.684;2023-01-19T14:40:20;3.00;97.90
23403;DHT22;11874;48.228;11.684;2023-01-19T14:42:52;2.90;97.70
23403;DHT22;11874;48.228;11.684;2023-01-19T14:45:22;2.90;97.80
23403;DHT22;11874;48.228;11.684;2023-01-19T14:47:56;3.00;97.80
23403;DHT22;11874;48.228;11.684;2023-01-19T14:50:27;2.90;97.90
23403;DHT22;11874;48.228;11.684;2023-01-19T14:52:59;2.90;98.00
23403;DHT22;11874;48.228;11.684;2023-01-19T14:55:34;3.10;98.30
23403;DHT22;11874;48.228;11.684;2023-01-19T14:58:09;2.70;98.10
23403;DHT22;11874;48.228;11.684;2023-01-19T15:00:37;2.90;98.30
23403;DHT22;11874;48.228;11.684;2023-01-19T15:03:05;2.90;98.20
23403;DHT22;11874;48.228;11.684;2023-01-19T15:05:35;2.80;98.30
23403;DHT22;11874;48.228;11.684;2023-01-19T15:08:04;2.80;98.40
23403;DHT22;11874;48.228;11.684;2023-01-19T15:10:34;2.80;98.50
23403;DHT22;11874;48.228;11.684;2023-01-19T15:13:02;2.90;98.60
23403;DHT22;11874;48.228;11.684;2023-01-19T15:15:33;2.90;98.60
23403;DHT22;11874;48.228;11.684;2023-01-19T15:18:03;2.80;98.50
23403;DHT22;11874;48.228;11.684;2023-01-19T15:20:31;2.80;98.40
23403;DHT22;11874;48.228;11.684;2023-01-19T15:22:59;2.80;98.30
23403;DHT22;11874;48.228;11.684;2023-01-19T15:25:27;2.80;98.30
23403;DHT22;11874;48.228;11.684;2023-01-19T15:27:57;2.90;98.30
23403;DHT22;11874;48.228;11.684;2023-01-19T15:30:27;2.80;98.30
23403;DHT22;11874;48.228;11.684;2023-01-19T15:32:58;2.80;98.30
23403;DHT22;11874;48.228;11.684;2023-01-19T15:35:25;2.80;98.10
23403;DHT22;11874;48.228;11.684;2023-01-19T15:37:53;2.80;97.90
23403;DHT22;11874;48.228;11.684;2023-01-19T15:40:21;2.80;97.90
23403;DHT22;11874;48.228;11.684;2023-01-19T15:42:49;2.60;97.90
23403;DHT22;11874;48.228;11.684;2023-01-19T15:45:31;2.80;98.00
23403;DHT22;11874;48.228;11.684;2023-01-19T15:48:02;2.80;98.10
23403;DHT22;11874;48.228;11.684;2023-01-19T15:50:31;2.80;98.00
23403;DHT22;11874;48.228;11.684;2023-01-19T15:52:59;2.80;97.80
23403;DHT22;11874;48.228;11.684;2023-01-19T15:55:27;2.80;97.90
23403;DHT22;11874;48.228;11.684;2023-01-19T15:57:55;2.80;97.80
23403;DHT22;11874;48.228;11.684;2023-01-19T16:00:28;2.70;97.80
23403;DHT22;11874;48.228;11.684;2023-01-19T16:02:56;2.70;97.80
23403;DHT22;11874;48.228;11.684;2023-01-19T16:05:26;2.70;98.00